Hollister, Wisconsin
Current Conditions -  °F | °C
As of 9:35 PM on Friday 28 Nov 2014 (Local Time) from KAIG Reporting Station
Broken Clouds Broken Clouds  
Wind Chill:   Ceiling: 8000
Heat Index: 15°   Visibility: 10mi
Dew Point: 14°   Wind: 9mph
Humidity: 95%   Direction: 110°ESE
Pressure: 29.82"   Gusts: NA
Location:  45.261°N, 88.731°W
Report Text: KAIG 290335Z AUTO 11008KT 10SM SCT005 BKN080 BKN100 M09/M10 A2982 RMK AO2 T10951101
Loading
Personal Weather Stations






























Interactive Weather Map New forecast layout! Learn more

10-Day Weather Forecast

Advertisements
Track Severe Weather on mobile